sensor_id;sensor_type;location;lat;lon;timestamp;temperature;humidity
27922;DHT22;15261;50.356;10.340;2023-04-25T00:00:25;9.20;99.90
27922;DHT22;15261;50.356;10.340;2023-04-25T00:02:51;9.20;99.90
27922;DHT22;15261;50.356;10.340;2023-04-25T00:05:16;9.20;99.90
27922;DHT22;15261;50.356;10.340;2023-04-25T00:07:42;9.20;99.90
27922;DHT22;15261;50.356;10.340;2023-04-25T00:10:09;9.20;99.90
27922;DHT22;15261;50.356;10.340;2023-04-25T00:12:36;9.20;99.90
27922;DHT22;15261;50.356;10.340;2023-04-25T00:15:02;9.30;99.90
27922;DHT22;15261;50.356;10.340;2023-04-25T00:17:28;9.20;99.90
27922;DHT22;15261;50.356;10.340;2023-04-25T00:19:54;9.20;99.90
27922;DHT22;15261;50.356;10.340;2023-04-25T00:22:21;9.20;99.90
27922;DHT22;15261;50.356;10.340;2023-04-25T00:24:47;9.20;99.90
27922;DHT22;15261;50.356;10.340;2023-04-25T00:27:12;9.30;99.90
27922;DHT22;15261;50.356;10.340;2023-04-25T00:29:38;9.30;99.90
27922;DHT22;15261;50.356;10.340;2023-04-25T00:32:03;9.30;99.90
27922;DHT22;15261;50.356;10.340;2023-04-25T00:34:29;9.30;99.90
27922;DHT22;15261;50.356;10.340;2023-04-25T00:36:55;9.20;99.90
27922;DHT22;15261;50.356;10.340;2023-04-25T00:39:20;9.20;99.90
27922;DHT22;15261;50.356;10.340;2023-04-25T00:41:46;9.20;99.90
27922;DHT22;15261;50.356;10.340;2023-04-25T00:44:12;9.30;99.90
27922;DHT22;15261;50.356;10.340;2023-04-25T00:46:38;9.30;99.90
27922;DHT22;15261;50.356;10.340;2023-04-25T00:49:04;9.30;99.90
27922;DHT22;15261;50.356;10.340;2023-04-25T00:51:30;9.20;99.90
27922;DHT22;15261;50.356;10.340;2023-04-25T00:53:57;9.30;99.90
27922;DHT22;15261;50.356;10.340;2023-04-25T00:56:23;9.30;99.90
27922;DHT22;15261;50.356;10.340;2023-04-25T00:58:49;9.20;99.90
27922;DHT22;15261;50.356;10.340;2023-04-25T05:35:30;8.50;99.90
27922;DHT22;15261;50.356;10.340;2023-04-25T05:37:56;8.30;99.90
27922;DHT22;15261;50.356;10.340;2023-04-25T05:40:22;8.30;99.90
27922;DHT22;15261;50.356;10.340;2023-04-25T05:42:51;8.40;99.90
27922;DHT22;15261;50.356;10.340;2023-04-25T05:45:16;8.30;99.90
27922;DHT22;15261;50.356;10.340;2023-04-25T05:47:43;8.30;99.90
27922;DHT22;15261;50.356;10.340;2023-04-25T05:50:11;8.40;99.90
27922;DHT22;15261;50.356;10.340;2023-04-25T05:52:37;8.30;99.90
27922;DHT22;15261;50.356;10.340;2023-04-25T05:55:02;8.20;99.90
27922;DHT22;15261;50.356;10.340;2023-04-25T05:57:28;8.20;99.90
27922;DHT22;15261;50.356;10.340;2023-04-25T05:59:57;8.20;99.90
27922;DHT22;15261;50.356;10.340;2023-04-25T06:02:23;8.00;99.90
27922;DHT22;15261;50.356;10.340;2023-04-25T06:04:50;7.90;99.90
27922;DHT22;15261;50.356;10.340;2023-04-25T06:07:16;7.90;99.90
27922;DHT22;15261;50.356;10.340;2023-04-25T06:09:43;8.00;99.90
27922;DHT22;15261;50.356;10.340;2023-04-25T06:12:08;8.10;99.90
27922;DHT22;15261;50.356;10.340;2023-04-25T06:14:34;8.00;99.90
27922;DHT22;15261;50.356;10.340;2023-04-25T06:17:00;8.10;99.90
27922;DHT22;15261;50.356;10.340;2023-04-25T06:19:40;8.20;99.90
27922;DHT22;15261;50.356;10.340;2023-04-25T06:22:10;8.10;99.90
27922;DHT22;15261;50.356;10.340;2023-04-25T06:24:35;8.10;99.90
27922;DHT22;15261;50.356;10.340;2023-04-25T06:27:01;8.10;99.90
27922;DHT22;15261;50.356;10.340;2023-04-25T06:29:27;8.10;99.90
27922;DHT22;15261;50.356;10.340;2023-04-25T06:31:52;8.20;99.90
27922;DHT22;15261;50.356;10.340;2023-04-25T06:34:18;8.20;99.90
27922;DHT22;15261;50.356;10.340;2023-04-25T06:36:45;8.30;99.90
27922;DHT22;15261;50.356;10.340;2023-04-25T06:39:14;8.60;99.90
27922;DHT22;15261;50.356;10.340;2023-04-25T06:41:40;9.00;99.90
27922;DHT22;15261;50.356;10.340;2023-04-25T06:44:06;9.40;99.90
27922;DHT22;15261;50.356;10.340;2023-04-25T06:46:31;9.70;99.90
27922;DHT22;15261;50.356;10.340;2023-04-25T06:49:00;10.00;99.90
27922;DHT22;15261;50.356;10.340;2023-04-25T06:51:25;9.90;99.90
27922;DHT22;15261;50.356;10.340;2023-04-25T06:53:53;9.70;99.90
27922;DHT22;15261;50.356;10.340;2023-04-25T06:56:19;9.80;99.90
27922;DHT22;15261;50.356;10.340;2023-04-25T06:58:46;9.80;99.90
27922;DHT22;15261;50.356;10.340;2023-04-25T07:01:12;9.70;99.90
27922;DHT22;15261;50.356;10.340;2023-04-25T07:03:37;9.50;99.00
27922;DHT22;15261;50.356;10.340;2023-04-25T07:06:03;9.30;99.20
27922;DHT22;15261;50.356;10.340;2023-04-25T07:08:29;9.20;98.70
27922;DHT22;15261;50.356;10.340;2023-04-25T07:10:55;9.20;99.40
27922;DHT22;15261;50.356;10.340;2023-04-25T07:13:21;9.00;99.90
27922;DHT22;15261;50.356;10.340;2023-04-25T07:15:46;9.00;99.70
27922;DHT22;15261;50.356;10.340;2023-04-25T07:18:13;8.80;99.20
27922;DHT22;15261;50.356;10.340;2023-04-25T07:20:39;8.60;99.70
27922;DHT22;15261;50.356;10.340;2023-04-25T07:23:05;8.50;99.60
27922;DHT22;15261;50.356;10.340;2023-04-25T07:25:31;8.40;99.70
27922;DHT22;15261;50.356;10.340;2023-04-25T07:27:56;8.70;99.90
27922;DHT22;15261;50.356;10.340;2023-04-25T07:30:22;8.80;99.70
27922;DHT22;15261;50.356;10.340;2023-04-25T07:32:49;8.80;99.90
27922;DHT22;15261;50.356;10.340;2023-04-25T07:35:15;8.90;99.90
27922;DHT22;15261;50.356;10.340;2023-04-25T07:37:41;8.90;99.90
27922;DHT22;15261;50.356;10.340;2023-04-25T07:40:07;8.90;99.00
27922;DHT22;15261;50.356;10.340;2023-04-25T07:42:34;8.80;99.10
27922;DHT22;15261;50.356;10.340;2023-04-25T07:45:01;8.90;99.90
27922;DHT22;15261;50.356;10.340;2023-04-25T07:47:26;9.00;99.60
27922;DHT22;15261;50.356;10.340;2023-04-25T07:49:52;9.20;99.30
27922;DHT22;15261;50.356;10.340;2023-04-25T07:52:19;9.30;99.20
27922;DHT22;15261;50.356;10.340;2023-04-25T07:54:45;9.60;98.80
27922;DHT22;15261;50.356;10.340;2023-04-25T07:57:10;9.60;98.50
27922;DHT22;15261;50.356;10.340;2023-04-25T07:59:36;9.70;98.70
27922;DHT22;15261;50.356;10.340;2023-04-25T08:02:02;10.00;98.00
27922;DHT22;15261;50.356;10.340;2023-04-25T08:04:27;10.20;97.40
27922;DHT22;15261;50.356;10.340;2023-04-25T08:06:54;10.20;97.00
27922;DHT22;15261;50.356;10.340;2023-04-25T08:09:20;10.50;97.00
27922;DHT22;15261;50.356;10.340;2023-04-25T08:11:46;10.90;96.80
27922;DHT22;15261;50.356;10.340;2023-04-25T08:14:13;11.30;96.50
27922;DHT22;15261;50.356;10.340;2023-04-25T08:16:39;11.70;95.30
27922;DHT22;15261;50.356;10.340;2023-04-25T08:19:04;11.90;94.50
27922;DHT22;15261;50.356;10.340;2023-04-25T08:21:34;12.20;94.40
27922;DHT22;15261;50.356;10.340;2023-04-25T08:24:00;12.50;94.20
27922;DHT22;15261;50.356;10.340;2023-04-25T08:26:26;12.50;94.10
27922;DHT22;15261;50.356;10.340;2023-04-25T08:28:51;12.10;93.70
27922;DHT22;15261;50.356;10.340;2023-04-25T08:31:17;11.80;94.40
27922;DHT22;15261;50.356;10.340;2023-04-25T08:33:46;11.70;94.70
27922;DHT22;15261;50.356;10.340;2023-04-25T08:36:12;11.50;94.20
27922;DHT22;15261;50.356;10.340;2023-04-25T08:38:37;11.40;94.70
27922;DHT22;15261;50.356;10.340;2023-04-25T08:41:03;11.60;95.00
27922;DHT22;15261;50.356;10.340;2023-04-25T08:43:30;11.60;94.30
27922;DHT22;15261;50.356;10.340;2023-04-25T08:46:00;11.40;94.10
27922;DHT22;15261;50.356;10.340;2023-04-25T08:48:32;11.30;94.40
27922;DHT22;15261;50.356;10.340;2023-04-25T08:51:01;11.30;94.90
27922;DHT22;15261;50.356;10.340;2023-04-25T08:53:32;11.30;94.20
27922;DHT22;15261;50.356;10.340;2023-04-25T08:55:59;11.30;94.20
27922;DHT22;15261;50.356;10.340;2023-04-25T08:58:27;11.10;94.50
27922;DHT22;15261;50.356;10.340;2023-04-25T09:00:56;11.20;94.50
27922;DHT22;15261;50.356;10.340;2023-04-25T09:03:22;11.10;94.40
27922;DHT22;15261;50.356;10.340;2023-04-25T09:05:51;11.30;94.00
27922;DHT22;15261;50.356;10.340;2023-04-25T09:08:18;11.30;93.70
27922;DHT22;15261;50.356;10.340;2023-04-25T09:10:43;11.40;94.70
27922;DHT22;15261;50.356;10.340;2023-04-25T09:13:11;11.40;94.10
27922;DHT22;15261;50.356;10.340;2023-04-25T09:15:54;11.50;94.20
27922;DHT22;15261;50.356;10.340;2023-04-25T09:18:28;11.40;93.80
27922;DHT22;15261;50.356;10.340;2023-04-25T09:20:55;11.10;94.30
27922;DHT22;15261;50.356;10.340;2023-04-25T09:23:21;11.00;94.00
27922;DHT22;15261;50.356;10.340;2023-04-25T09:25:52;11.00;93.60
27922;DHT22;15261;50.356;10.340;2023-04-25T09:28:28;10.90;93.90
27922;DHT22;15261;50.356;10.340;2023-04-25T09:30:57;11.00;93.50
27922;DHT22;15261;50.356;10.340;2023-04-25T09:33:30;11.10;93.80
27922;DHT22;15261;50.356;10.340;2023-04-25T09:38:39;11.50;93.20
27922;DHT22;15261;50.356;10.340;2023-04-25T09:41:06;11.60;93.40
27922;DHT22;15261;50.356;10.340;2023-04-25T09:43:32;11.90;93.50
27922;DHT22;15261;50.356;10.340;2023-04-25T09:45:58;12.20;93.40
27922;DHT22;15261;50.356;10.340;2023-04-25T09:48:26;12.50;91.80
27922;DHT22;15261;50.356;10.340;2023-04-25T09:51:13;12.50;91.70
27922;DHT22;15261;50.356;10.340;2023-04-25T09:53:40;12.40;91.50
27922;DHT22;15261;50.356;10.340;2023-04-25T09:56:11;12.10;91.20
27922;DHT22;15261;50.356;10.340;2023-04-25T09:58:39;12.00;91.30
27922;DHT22;15261;50.356;10.340;2023-04-25T10:01:09;12.20;91.40
27922;DHT22;15261;50.356;10.340;2023-04-25T10:03:39;12.30;90.70
27922;DHT22;15261;50.356;10.340;2023-04-25T10:06:09;12.20;91.10
27922;DHT22;15261;50.356;10.340;2023-04-25T10:08:37;12.10;91.00
27922;DHT22;15261;50.356;10.340;2023-04-25T10:11:05;12.10;90.80
27922;DHT22;15261;50.356;10.340;2023-04-25T10:13:32;12.60;91.30
27922;DHT22;15261;50.356;10.340;2023-04-25T10:15:58;12.70;90.20
27922;DHT22;15261;50.356;10.340;2023-04-25T10:18:26;12.90;90.30
27922;DHT22;15261;50.356;10.340;2023-04-25T10:20:58;13.00;90.40
27922;DHT22;15261;50.356;10.340;2023-04-25T10:23:24;12.90;90.20
27922;DHT22;15261;50.356;10.340;2023-04-25T10:25:51;13.10;90.20
27922;DHT22;15261;50.356;10.340;2023-04-25T10:28:18;13.40;88.60
27922;DHT22;15261;50.356;10.340;2023-04-25T10:31:02;13.70;86.10
27922;DHT22;15261;50.356;10.340;2023-04-25T10:33:39;13.70;84.80
27922;DHT22;15261;50.356;10.340;2023-04-25T10:36:19;13.70;84.60
27922;DHT22;15261;50.356;10.340;2023-04-25T10:38:47;13.20;85.30
27922;DHT22;15261;50.356;10.340;2023-04-25T10:41:13;13.10;87.20
27922;DHT22;15261;50.356;10.340;2023-04-25T10:43:43;12.80;85.40
27922;DHT22;15261;50.356;10.340;2023-04-25T10:46:23;12.80;86.30
27922;DHT22;15261;50.356;10.340;2023-04-25T10:51:17;12.60;86.30
27922;DHT22;15261;50.356;10.340;2023-04-25T10:53:56;12.50;87.60
27922;DHT22;15261;50.356;10.340;2023-04-25T10:56:23;12.50;86.50
27922;DHT22;15261;50.356;10.340;2023-04-25T10:58:50;12.60;86.20
27922;DHT22;15261;50.356;10.340;2023-04-25T11:01:21;12.70;85.20
27922;DHT22;15261;50.356;10.340;2023-04-25T11:03:47;13.00;85.90
27922;DHT22;15261;50.356;10.340;2023-04-25T11:09:12;13.50;79.80
27922;DHT22;15261;50.356;10.340;2023-04-25T11:11:41;13.60;80.40
27922;DHT22;15261;50.356;10.340;2023-04-25T11:14:07;13.60;81.10
27922;DHT22;15261;50.356;10.340;2023-04-25T11:16:33;13.60;79.80
27922;DHT22;15261;50.356;10.340;2023-04-25T11:18:58;13.30;80.70
27922;DHT22;15261;50.356;10.340;2023-04-25T11:21:27;13.40;81.50
27922;DHT22;15261;50.356;10.340;2023-04-25T11:23:56;13.60;82.50
27922;DHT22;15261;50.356;10.340;2023-04-25T11:26:22;13.30;80.90
27922;DHT22;15261;50.356;10.340;2023-04-25T11:31:45;12.40;83.30
27922;DHT22;15261;50.356;10.340;2023-04-25T11:34:11;12.00;85.40
27922;DHT22;15261;50.356;10.340;2023-04-25T11:36:38;11.70;85.90
27922;DHT22;15261;50.356;10.340;2023-04-25T11:39:04;11.40;85.70
27922;DHT22;15261;50.356;10.340;2023-04-25T11:41:31;11.40;86.40
27922;DHT22;15261;50.356;10.340;2023-04-25T11:44:16;11.50;86.90
27922;DHT22;15261;50.356;10.340;2023-04-25T11:46:43;11.40;85.40
27922;DHT22;15261;50.356;10.340;2023-04-25T11:49:16;11.40;86.30
27922;DHT22;15261;50.356;10.340;2023-04-25T11:51:52;11.30;86.80
27922;DHT22;15261;50.356;10.340;2023-04-25T11:54:25;11.20;86.50
27922;DHT22;15261;50.356;10.340;2023-04-25T11:56:58;11.20;84.80
27922;DHT22;15261;50.356;10.340;2023-04-25T11:59:26;11.10;86.30
27922;DHT22;15261;50.356;10.340;2023-04-25T12:01:56;11.10;89.50
27922;DHT22;15261;50.356;10.340;2023-04-25T12:04:24;11.10;89.30
27922;DHT22;15261;50.356;10.340;2023-04-25T12:06:52;11.00;90.20
27922;DHT22;15261;50.356;10.340;2023-04-25T13:05:32;13.20;78.70
27922;DHT22;15261;50.356;10.340;2023-04-25T13:07:58;13.10;80.50
27922;DHT22;15261;50.356;10.340;2023-04-25T13:10:24;13.10;79.40
27922;DHT22;15261;50.356;10.340;2023-04-25T13:12:50;12.80;79.70
27922;DHT22;15261;50.356;10.340;2023-04-25T13:15:16;12.60;80.00
27922;DHT22;15261;50.356;10.340;2023-04-25T13:17:42;12.20;81.30
27922;DHT22;15261;50.356;10.340;2023-04-25T13:20:10;11.60;83.80
27922;DHT22;15261;50.356;10.340;2023-04-25T13:22:40;11.20;85.30
27922;DHT22;15261;50.356;10.340;2023-04-25T13:25:07;11.00;85.50
27922;DHT22;15261;50.356;10.340;2023-04-25T13:27:34;10.90;85.30
27922;DHT22;15261;50.356;10.340;2023-04-25T13:30:01;10.90;83.70
27922;DHT22;15261;50.356;10.340;2023-04-25T13:32:35;11.00;82.80
27922;DHT22;15261;50.356;10.340;2023-04-25T13:35:05;11.30;82.70
27922;DHT22;15261;50.356;10.340;2023-04-25T13:37:31;11.40;80.70
27922;DHT22;15261;50.356;10.340;2023-04-25T13:40:02;11.60;79.20
27922;DHT22;15261;50.356;10.340;2023-04-25T13:42:32;11.80;79.50
27922;DHT22;15261;50.356;10.340;2023-04-25T13:44:58;12.10;78.50
27922;DHT22;15261;50.356;10.340;2023-04-25T13:47:25;12.30;78.60
27922;DHT22;15261;50.356;10.340;2023-04-25T13:49:50;12.40;78.00
27922;DHT22;15261;50.356;10.340;2023-04-25T13:52:16;12.40;76.80
27922;DHT22;15261;50.356;10.340;2023-04-25T13:54:42;12.70;76.00
27922;DHT22;15261;50.356;10.340;2023-04-25T13:57:07;12.70;75.90
27922;DHT22;15261;50.356;10.340;2023-04-25T13:59:33;12.40;73.80
27922;DHT22;15261;50.356;10.340;2023-04-25T14:01:59;12.30;74.50
27922;DHT22;15261;50.356;10.340;2023-04-25T14:04:24;12.40;73.70
27922;DHT22;15261;50.356;10.340;2023-04-25T14:06:50;12.30;71.50
27922;DHT22;15261;50.356;10.340;2023-04-25T14:09:17;12.30;74.30
27922;DHT22;15261;50.356;10.340;2023-04-25T14:11:43;12.30;71.80
27922;DHT22;15261;50.356;10.340;2023-04-25T14:14:08;12.10;70.20
27922;DHT22;15261;50.356;10.340;2023-04-25T14:16:34;12.10;70.20
27922;DHT22;15261;50.356;10.340;2023-04-25T14:19:00;11.90;73.80
27922;DHT22;15261;50.356;10.340;2023-04-25T14:21:27;12.00;73.40
27922;DHT22;15261;50.356;10.340;2023-04-25T14:23:53;11.80;70.70
27922;DHT22;15261;50.356;10.340;2023-04-25T14:26:19;12.00;73.40
27922;DHT22;15261;50.356;10.340;2023-04-25T14:28:45;12.10;74.00
27922;DHT22;15261;50.356;10.340;2023-04-25T14:31:10;12.10;71.70
27922;DHT22;15261;50.356;10.340;2023-04-25T14:33:36;12.00;72.00
27922;DHT22;15261;50.356;10.340;2023-04-25T14:36:05;11.90;70.50
27922;DHT22;15261;50.356;10.340;2023-04-25T14:38:31;11.80;69.90
27922;DHT22;15261;50.356;10.340;2023-04-25T14:40:56;11.90;72.10
27922;DHT22;15261;50.356;10.340;2023-04-25T14:43:22;11.90;72.60
27922;DHT22;15261;50.356;10.340;2023-04-25T14:45:48;12.00;70.10
27922;DHT22;15261;50.356;10.340;2023-04-25T14:48:13;11.90;72.60
27922;DHT22;15261;50.356;10.340;2023-04-25T14:50:40;11.90;73.20
27922;DHT22;15261;50.356;10.340;2023-04-25T14:53:06;11.80;69.40
27922;DHT22;15261;50.356;10.340;2023-04-25T14:55:32;11.70;69.70
27922;DHT22;15261;50.356;10.340;2023-04-25T14:57:57;11.50;70.40
27922;DHT22;15261;50.356;10.340;2023-04-25T15:00:23;11.30;71.40
27922;DHT22;15261;50.356;10.340;2023-04-25T15:02:50;11.30;75.80
27922;DHT22;15261;50.356;10.340;2023-04-25T15:05:16;11.10;73.50
27922;DHT22;15261;50.356;10.340;2023-04-25T15:07:42;11.00;76.00
27922;DHT22;15261;50.356;10.340;2023-04-25T15:10:08;11.10;75.00
27922;DHT22;15261;50.356;10.340;2023-04-25T15:12:39;11.10;73.80
27922;DHT22;15261;50.356;10.340;2023-04-25T15:15:06;11.20;74.40
27922;DHT22;15261;50.356;10.340;2023-04-25T15:17:42;11.30;73.60
27922;DHT22;15261;50.356;10.340;2023-04-25T15:20:22;11.40;71.90
27922;DHT22;15261;50.356;10.340;2023-04-25T15:22:55;11.50;71.20
27922;DHT22;15261;50.356;10.340;2023-04-25T15:25:21;11.70;71.90
27922;DHT22;15261;50.356;10.340;2023-04-25T15:27:47;11.80;71.00
27922;DHT22;15261;50.356;10.340;2023-04-25T15:30:17;11.70;70.60
27922;DHT22;15261;50.356;10.340;2023-04-25T15:32:44;11.80;72.70
27922;DHT22;15261;50.356;10.340;2023-04-25T15:35:10;11.80;70.10
27922;DHT22;15261;50.356;10.340;2023-04-25T15:37:36;11.60;71.30
27922;DHT22;15261;50.356;10.340;2023-04-25T15:40:15;11.70;72.10
27922;DHT22;15261;50.356;10.340;2023-04-25T15:42:43;11.50;71.10
27922;DHT22;15261;50.356;10.340;2023-04-25T15:45:13;11.40;71.90
27922;DHT22;15261;50.356;10.340;2023-04-25T15:47:39;11.20;71.50
27922;DHT22;15261;50.356;10.340;2023-04-25T15:50:07;11.30;74.00
27922;DHT22;15261;50.356;10.340;2023-04-25T15:52:34;11.30;73.40
27922;DHT22;15261;50.356;10.340;2023-04-25T15:55:01;11.20;73.50
27922;DHT22;15261;50.356;10.340;2023-04-25T15:57:26;11.10;72.20
27922;DHT22;15261;50.356;10.340;2023-04-25T15:59:52;11.00;73.30
27922;DHT22;15261;50.356;10.340;2023-04-25T16:02:18;11.00;73.80
27922;DHT22;15261;50.356;10.340;2023-04-25T16:04:44;11.00;72.50
27922;DHT22;15261;50.356;10.340;2023-04-25T16:07:12;10.90;72.40
27922;DHT22;15261;50.356;10.340;2023-04-25T16:09:38;11.00;74.20
27922;DHT22;15261;50.356;10.340;2023-04-25T16:12:05;11.10;74.90
27922;DHT22;15261;50.356;10.340;2023-04-25T16:25:00;10.70;71.10
27922;DHT22;15261;50.356;10.340;2023-04-25T16:27:45;10.60;72.20
27922;DHT22;15261;50.356;10.340;2023-04-25T16:36:20;10.00;72.50
27922;DHT22;15261;50.356;10.340;2023-04-25T16:38:46;9.90;73.60
27922;DHT22;15261;50.356;10.340;2023-04-25T16:41:12;9.90;72.90
27922;DHT22;15261;50.356;10.340;2023-04-25T16:43:46;9.90;72.30
27922;DHT22;15261;50.356;10.340;2023-04-25T16:46:21;9.90;72.40
27922;DHT22;15261;50.356;10.340;2023-04-25T16:48:48;9.90;73.70
27922;DHT22;15261;50.356;10.340;2023-04-25T16:51:14;9.80;73.20
27922;DHT22;15261;50.356;10.340;2023-04-25T16:53:41;9.80;75.20
27922;DHT22;15261;50.356;10.340;2023-04-25T16:56:07;9.80;75.70
27922;DHT22;15261;50.356;10.340;2023-04-25T16:58:34;9.80;76.10
27922;DHT22;15261;50.356;10.340;2023-04-25T17:00:59;9.70;76.60
27922;DHT22;15261;50.356;10.340;2023-04-25T17:03:25;9.70;76.50
27922;DHT22;15261;50.356;10.340;2023-04-25T17:05:53;9.70;76.10
27922;DHT22;15261;50.356;10.340;2023-04-25T17:08:22;9.60;76.10
27922;DHT22;15261;50.356;10.340;2023-04-25T17:10:51;9.60;76.00
27922;DHT22;15261;50.356;10.340;2023-04-25T17:13:17;9.60;77.00
27922;DHT22;15261;50.356;10.340;2023-04-25T17:15:42;9.50;76.30
27922;DHT22;15261;50.356;10.340;2023-04-25T17:18:08;9.50;76.00
27922;DHT22;15261;50.356;10.340;2023-04-25T17:20:34;9.40;76.60
27922;DHT22;15261;50.356;10.340;2023-04-25T17:22:59;9.40;77.20
27922;DHT22;15261;50.356;10.340;2023-04-25T17:25:25;9.50;76.20
27922;DHT22;15261;50.356;10.340;2023-04-25T17:27:51;9.40;77.20
27922;DHT22;15261;50.356;10.340;2023-04-25T17:30:17;9.40;77.40
27922;DHT22;15261;50.356;10.340;2023-04-25T17:32:43;9.30;79.20
27922;DHT22;15261;50.356;10.340;2023-04-25T17:35:09;9.30;78.70
27922;DHT22;15261;50.356;10.340;2023-04-25T17:37:34;9.30;79.90
27922;DHT22;15261;50.356;10.340;2023-04-25T17:40:00;9.20;80.10
27922;DHT22;15261;50.356;10.340;2023-04-25T17:42:26;9.20;80.40
27922;DHT22;15261;50.356;10.340;2023-04-25T17:44:52;9.20;80.40
27922;DHT22;15261;50.356;10.340;2023-04-25T17:47:20;9.20;80.50
27922;DHT22;15261;50.356;10.340;2023-04-25T17:49:45;9.10;81.30
27922;DHT22;15261;50.356;10.340;2023-04-25T17:52:11;9.20;80.80
27922;DHT22;15261;50.356;10.340;2023-04-25T17:54:37;9.10;80.80
27922;DHT22;15261;50.356;10.340;2023-04-25T17:57:02;9.10;81.00
27922;DHT22;15261;50.356;10.340;2023-04-25T17:59:29;9.10;80.70
27922;DHT22;15261;50.356;10.340;2023-04-25T18:01:55;9.10;79.30
27922;DHT22;15261;50.356;10.340;2023-04-25T18:04:23;8.90;78.80
27922;DHT22;15261;50.356;10.340;2023-04-25T18:06:48;9.00;80.30
27922;DHT22;15261;50.356;10.340;2023-04-25T18:09:14;8.90;81.30
27922;DHT22;15261;50.356;10.340;2023-04-25T18:11:46;8.80;81.40
27922;DHT22;15261;50.356;10.340;2023-04-25T18:14:13;8.80;82.50
27922;DHT22;15261;50.356;10.340;2023-04-25T18:16:50;8.70;82.70
27922;DHT22;15261;50.356;10.340;2023-04-25T18:19:18;8.70;82.70
27922;DHT22;15261;50.356;10.340;2023-04-25T18:21:48;8.70;82.40
27922;DHT22;15261;50.356;10.340;2023-04-25T18:24:15;8.60;82.30
27922;DHT22;15261;50.356;10.340;2023-04-25T18:26:45;8.40;83.10
27922;DHT22;15261;50.356;10.340;2023-04-25T18:29:12;8.30;83.50
27922;DHT22;15261;50.356;10.340;2023-04-25T18:31:38;8.20;84.80
27922;DHT22;15261;50.356;10.340;2023-04-25T18:34:04;8.20;84.80
27922;DHT22;15261;50.356;10.340;2023-04-25T18:36:30;8.10;84.40
27922;DHT22;15261;50.356;10.340;2023-04-25T18:38:56;8.20;84.50
27922;DHT22;15261;50.356;10.340;2023-04-25T18:41:22;8.10;84.90
27922;DHT22;15261;50.356;10.340;2023-04-25T18:43:49;8.20;83.50
27922;DHT22;15261;50.356;10.340;2023-04-25T18:46:16;8.20;83.50
27922;DHT22;15261;50.356;10.340;2023-04-25T18:48:42;8.10;84.00
27922;DHT22;15261;50.356;10.340;2023-04-25T18:51:08;8.10;85.40
27922;DHT22;15261;50.356;10.340;2023-04-25T18:53:33;8.00;85.10
27922;DHT22;15261;50.356;10.340;2023-04-25T18:55:59;7.90;84.90
27922;DHT22;15261;50.356;10.340;2023-04-25T18:58:25;7.90;86.30
27922;DHT22;15261;50.356;10.340;2023-04-25T19:00:51;7.90;88.00
27922;DHT22;15261;50.356;10.340;2023-04-25T19:03:16;7.80;86.90
27922;DHT22;15261;50.356;10.340;2023-04-25T19:05:42;7.80;87.60
27922;DHT22;15261;50.356;10.340;2023-04-25T19:08:07;7.80;88.70
27922;DHT22;15261;50.356;10.340;2023-04-25T19:10:33;7.80;88.80
27922;DHT22;15261;50.356;10.340;2023-04-25T19:12:58;7.70;90.10
27922;DHT22;15261;50.356;10.340;2023-04-25T19:15:24;7.50;91.00
27922;DHT22;15261;50.356;10.340;2023-04-25T19:17:50;7.40;91.30
27922;DHT22;15261;50.356;10.340;2023-04-25T19:20:16;7.30;91.00
27922;DHT22;15261;50.356;10.340;2023-04-25T19:22:42;7.10;91.30
27922;DHT22;15261;50.356;10.340;2023-04-25T19:25:08;7.10;91.60
27922;DHT22;15261;50.356;10.340;2023-04-25T19:27:33;7.10;91.80
27922;DHT22;15261;50.356;10.340;2023-04-25T19:29:59;7.00;91.80
27922;DHT22;15261;50.356;10.340;2023-04-25T19:32:33;6.90;91.70
27922;DHT22;15261;50.356;10.340;2023-04-25T19:34:59;6.80;91.80
27922;DHT22;15261;50.356;10.340;2023-04-25T19:37:25;6.60;92.30
27922;DHT22;15261;50.356;10.340;2023-04-25T19:39:51;6.50;91.80
27922;DHT22;15261;50.356;10.340;2023-04-25T19:42:16;6.40;91.90
27922;DHT22;15261;50.356;10.340;2023-04-25T19:44:44;6.30;92.10
27922;DHT22;15261;50.356;10.340;2023-04-25T19:47:09;6.30;92.80
27922;DHT22;15261;50.356;10.340;2023-04-25T19:49:38;6.10;93.30
27922;DHT22;15261;50.356;10.340;2023-04-25T19:52:04;6.00;93.60
27922;DHT22;15261;50.356;10.340;2023-04-25T19:54:32;6.00;94.00
27922;DHT22;15261;50.356;10.340;2023-04-25T19:56:58;6.00;93.90
27922;DHT22;15261;50.356;10.340;2023-04-25T19:59:24;5.80;93.90
27922;DHT22;15261;50.356;10.340;2023-04-25T20:01:50;5.60;94.50
27922;DHT22;15261;50.356;10.340;2023-04-25T20:04:15;5.60;94.90
27922;DHT22;15261;50.356;10.340;2023-04-25T20:06:42;5.60;94.60
27922;DHT22;15261;50.356;10.340;2023-04-25T20:09:08;5.60;94.30
27922;DHT22;15261;50.356;10.340;2023-04-25T20:14:33;5.80;94.10
27922;DHT22;15261;50.356;10.340;2023-04-25T20:16:58;6.00;93.90
27922;DHT22;15261;50.356;10.340;2023-04-25T20:19:24;6.00;94.40
27922;DHT22;15261;50.356;10.340;2023-04-25T20:21:50;6.10;94.20
27922;DHT22;15261;50.356;10.340;2023-04-25T20:24:15;6.20;93.70
27922;DHT22;15261;50.356;10.340;2023-04-25T20:26:41;6.10;93.20
27922;DHT22;15261;50.356;10.340;2023-04-25T20:29:06;6.10;93.20
27922;DHT22;15261;50.356;10.340;2023-04-25T20:31:47;5.80;93.70
27922;DHT22;15261;50.356;10.340;2023-04-25T20:34:18;5.70;94.00
27922;DHT22;15261;50.356;10.340;2023-04-25T20:36:44;5.90;94.40
27922;DHT22;15261;50.356;10.340;2023-04-25T20:39:09;6.00;94.40
27922;DHT22;15261;50.356;10.340;2023-04-25T20:41:35;6.10;94.30
27922;DHT22;15261;50.356;10.340;2023-04-25T20:44:02;6.20;94.20
27922;DHT22;15261;50.356;10.340;2023-04-25T20:46:28;6.30;93.90
27922;DHT22;15261;50.356;10.340;2023-04-25T20:48:54;6.30;93.70
27922;DHT22;15261;50.356;10.340;2023-04-25T20:51:20;6.30;93.70
27922;DHT22;15261;50.356;10.340;2023-04-25T20:53:45;6.40;93.70
27922;DHT22;15261;50.356;10.340;2023-04-25T20:56:11;6.20;93.60
27922;DHT22;15261;50.356;10.340;2023-04-25T20:58:37;6.20;93.80
27922;DHT22;15261;50.356;10.340;2023-04-25T21:01:30;6.10;94.20
27922;DHT22;15261;50.356;10.340;2023-04-25T21:03:56;6.10;94.50
27922;DHT22;15261;50.356;10.340;2023-04-25T21:06:21;6.10;94.30
27922;DHT22;15261;50.356;10.340;2023-04-25T21:12:01;6.00;94.80
27922;DHT22;15261;50.356;10.340;2023-04-25T21:14:27;6.00;95.20
27922;DHT22;15261;50.356;10.340;2023-04-25T21:16:53;6.00;95.60
27922;DHT22;15261;50.356;10.340;2023-04-25T21:19:19;6.00;95.60
27922;DHT22;15261;50.356;10.340;2023-04-25T21:22:17;5.90;95.60
27922;DHT22;15261;50.356;10.340;2023-04-25T21:24:43;5.80;95.60
27922;DHT22;15261;50.356;10.340;2023-04-25T21:27:10;5.90;95.30
27922;DHT22;15261;50.356;10.340;2023-04-25T21:29:36;5.90;94.60